28TN weather

Bhm East Helipad Heliport
Memphis, Tennessee, United States

Public forecast

Using degrees Fahrenheit for public forecast. Weather courtesy of forecast.io.

METAR (pilot weather report)

Closest report is Memphis International Airport, 7.6 nm (14.0 km) SW. Retrieved 2019/06/27 11:54 UTC (39 minutes ago):

KMEM 271154Z 10003KT 10SM FEW050TCU FEW130 SCT250 24/22 A3019 RMK AO2 SLP219 TCU N-NE T02440222 10256 20222 53013

TAF (pilot weather forecast)

Closest forecast is Memphis International Airport, 7.6 nm (14.0 km) SW. Retrieved 2019/06/27 12:22 UTC (11 minutes ago):

TAF KMEM 271120Z 2712/2818 VRB03KT P6SM BKN050 FM271400 35010KT P6SM SCT035 BKN060 FM271900 23006KT P6SM VCTS SCT045CB BKN060 FM280100 18003KT P6SM SCT050 BKN100 FM281300 18007KT P6SM OVC100